Time;durP1;ratioP1;P1;durP2;ratioP2;P2;SDS_P1;SDS_P2;PMS_P1;PMS_P2;Temp;Humidity;BMP_temperature;BMP_pressure;BME280_temperature;BME280_humidity;BME280_pressure;Samples;Min_cycle;Max_cycle;Signal;HPM_P1;HPM_P2
2022/09/02 00:02:16;;;;;;;2.35;2.03;;;25.80;56.70;;;;;;4742483;55;21015;-36
2022/09/02 00:07:17;;;;;;;2.72;2.15;;;25.80;56.70;;;;;;4790279;55;20983;-33
2022/09/02 00:12:18;;;;;;;2.33;2.12;;;25.80;56.70;;;;;;4744255;55;21549;-25
2022/09/02 00:17:21;;;;;;;1.98;1.77;;;25.80;56.80;;;;;;4747288;55;21071;-33
2022/09/02 00:22:22;;;;;;;1.80;1.70;;;25.80;56.60;;;;;;4740660;55;21007;-35
2022/09/02 00:27:24;;;;;;;2.20;2.00;;;25.80;56.70;;;;;;4741526;55;21473;-27
2022/09/02 00:32:24;;;;;;;2.12;1.90;;;25.80;56.70;;;;;;4754705;55;21473;-31
2022/09/02 00:37:26;;;;;;;2.10;1.90;;;25.80;56.60;;;;;;4743396;55;20984;-29
2022/09/02 00:42:27;;;;;;;2.42;2.10;;;25.80;56.70;;;;;;4736271;55;21022;-29
2022/09/02 00:47:29;;;;;;;2.22;1.70;;;25.80;56.70;;;;;;4776349;55;21051;-28
2022/09/02 00:52:40;;;;;;;3.47;2.12;;;25.80;56.70;;;;;;4776120;55;21560;-29
2022/09/02 00:57:48;;;;;;;2.90;1.85;;;25.80;56.70;;;;;;4742742;55;20964;-36
2022/09/02 01:02:57;;;;;;;2.20;2.00;;;25.80;56.60;;;;;;4795245;55;21091;-31
2022/09/02 01:07:59;;;;;;;3.12;1.87;;;25.80;56.60;;;;;;4754881;55;21063;-28
2022/09/02 01:13:07;;;;;;;3.28;2.00;;;25.80;56.40;;;;;;4780686;55;20995;-36
2022/09/02 01:18:10;;;;;;;1.98;1.83;;;25.80;56.60;;;;;;4800909;55;20999;-30
2022/09/02 01:23:16;;;;;;;2.28;1.87;;;25.80;56.40;;;;;;4787349;55;21087;-28
2022/09/02 01:28:18;;;;;;;3.58;1.90;;;25.80;56.60;;;;;;4779292;55;21055;-26
2022/09/02 01:33:21;;;;;;;3.90;1.65;;;25.80;56.60;;;;;;4787857;55;21489;-27
2022/09/02 01:38:23;;;;;;;2.65;1.83;;;25.80;56.60;;;;;;4788562;55;21020;-28
2022/09/02 01:43:26;;;;;;;2.10;1.95;;;25.80;56.50;;;;;;4736739;59;20992;-28
2022/09/02 01:48:27;;;;;;;1.70;1.60;;;25.80;56.50;;;;;;4744320;55;21075;-37
2022/09/02 01:53:29;;;;;;;1.90;1.80;;;25.80;56.40;;;;;;4773808;55;21002;-29
2022/09/02 01:58:29;;;;;;;1.90;1.80;;;25.80;56.50;;;;;;4737538;55;21044;-33
2022/09/02 02:03:31;;;;;;;2.05;1.80;;;25.80;56.50;;;;;;4821029;55;21004;-30
2022/09/02 02:08:32;;;;;;;3.47;1.70;;;25.80;56.40;;;;;;4746264;55;21539;-26
2022/09/02 02:13:33;;;;;;;1.80;1.62;;;25.80;56.60;;;;;;4784302;55;21004;-26
2022/09/02 02:18:33;;;;;;;2.08;1.70;;;25.80;56.40;;;;;;4736415;59;20987;-29
2022/09/02 02:23:35;;;;;;;1.73;1.62;;;25.80;56.40;;;;;;4745735;55;21493;-31
2022/09/02 02:28:37;;;;;;;2.25;1.77;;;25.70;56.40;;;;;;4761954;55;21466;-33
2022/09/02 02:33:38;;;;;;;2.33;1.98;;;25.70;56.20;;;;;;4783372;55;21002;-28
2022/09/02 02:38:40;;;;;;;1.75;1.60;;;25.70;56.20;;;;;;4763056;55;21529;-33
2022/09/02 02:43:43;;;;;;;1.98;1.83;;;25.70;56.30;;;;;;4760745;55;21462;-27
2022/09/02 02:48:44;;;;;;;3.03;1.85;;;25.70;56.20;;;;;;4736495;59;20999;-28
2022/09/02 02:53:46;;;;;;;2.53;1.80;;;25.80;56.20;;;;;;4758779;55;21600;-26
2022/09/02 02:58:47;;;;;;;1.98;1.83;;;25.70;56.30;;;;;;4736761;55;21540;-32
2022/09/02 03:03:50;;;;;;;2.97;1.80;;;25.70;56.10;;;;;;4756878;55;21597;-28
2022/09/02 03:08:52;;;;;;;2.55;1.90;;;25.70;56.00;;;;;;4741512;55;21502;-26
2022/09/02 03:13:54;;;;;;;1.83;1.73;;;25.70;56.20;;;;;;4757948;55;21993;-37
2022/09/02 03:18:54;;;;;;;2.33;2.05;;;25.70;56.20;;;;;;4747594;55;21059;-30
2022/09/02 03:23:56;;;;;;;1.95;1.80;;;25.70;56.30;;;;;;4769804;55;21255;-27
2022/09/02 03:28:58;;;;;;;2.30;1.92;;;25.80;56.30;;;;;;4737080;59;21512;-30
2022/09/02 03:33:59;;;;;;;3.08;2.30;;;25.70;56.20;;;;;;4751499;55;21454;-30
2022/09/02 03:39:02;;;;;;;4.07;2.12;;;25.70;56.30;;;;;;4777890;55;21493;-31
2022/09/02 03:44:04;;;;;;;2.30;2.10;;;25.70;56.20;;;;;;4742334;55;21044;-27
2022/09/02 03:49:07;;;;;;;2.33;2.05;;;25.70;56.30;;;;;;4736561;59;21509;-28
2022/09/02 03:54:09;;;;;;;3.78;2.20;;;25.70;56.20;;;;;;4779881;55;20983;-31
2022/09/02 03:59:10;;;;;;;5.45;2.28;;;25.70;56.20;;;;;;4774208;55;21485;-34
2022/09/02 04:04:11;;;;;;;2.75;2.15;;;25.70;56.20;;;;;;4766594;55;21063;-28
2022/09/02 04:09:12;;;;;;;3.33;2.20;;;25.70;56.20;;;;;;4736923;59;21540;-36
2022/09/02 04:14:13;;;;;;;2.67;2.12;;;25.70;56.20;;;;;;4736736;59;21075;-26
2022/09/02 04:19:14;;;;;;;4.55;2.50;;;25.70;56.20;;;;;;4734974;59;21490;-34
2022/09/02 04:24:14;;;;;;;4.70;2.60;;;25.70;56.30;;;;;;4770120;55;21001;-37
2022/09/02 04:29:16;;;;;;;3.75;2.37;;;25.70;56.20;;;;;;4778253;55;20992;-33
2022/09/02 04:34:17;;;;;;;3.15;2.40;;;25.60;55.80;;;;;;4751254;55;21038;-34
2022/09/02 04:39:18;;;;;;;3.60;2.33;;;25.60;56.00;;;;;;4743044;55;21019;-32
2022/09/02 04:44:19;;;;;;;2.60;2.20;;;25.60;55.80;;;;;;4775852;55;21461;-32
2022/09/02 04:49:20;;;;;;;2.50;2.30;;;25.60;56.40;;;;;;4775531;55;21028;-30
2022/09/02 04:54:21;;;;;;;3.05;2.67;;;25.60;55.70;;;;;;4797184;55;21019;-32
2022/09/02 04:59:21;;;;;;;4.15;3.20;;;25.60;55.70;;;;;;4744270;55;21493;-27
2022/09/02 05:04:22;;;;;;;6.55;3.20;;;25.60;56.30;;;;;;4777849;55;21059;-27
2022/09/02 05:09:23;;;;;;;5.68;3.67;;;25.60;55.60;;;;;;4747542;55;20992;-28
2022/09/02 05:14:25;;;;;;;3.92;3.50;;;25.60;55.60;;;;;;4736135;59;21103;-36
2022/09/02 05:19:26;;;;;;;4.12;3.58;;;25.60;55.50;;;;;;4735912;59;21079;-28
2022/09/02 05:24:27;;;;;;;5.12;3.72;;;25.60;55.40;;;;;;4735955;59;20996;-30
2022/09/02 05:29:28;;;;;;;6.55;3.95;;;25.60;55.50;;;;;;4747455;55;21469;-31
2022/09/02 05:34:29;;;;;;;5.78;3.60;;;25.60;55.40;;;;;;4738579;55;20971;-33
2022/09/02 05:39:33;;;;;;;6.93;3.72;;;25.60;55.50;;;;;;4736651;55;21003;-29
2022/09/02 05:44:36;;;;;;;6.40;4.18;;;25.60;55.50;;;;;;4777730;55;21015;-27
2022/09/02 05:49:37;;;;;;;3.95;3.53;;;25.60;55.40;;;;;;4735997;59;21087;-29
2022/09/02 05:54:38;;;;;;;4.90;4.40;;;25.50;55.40;;;;;;4746035;55;21111;-27
2022/09/02 05:59:41;;;;;;;6.65;4.25;;;25.60;55.40;;;;;;4787462;55;21006;-25
2022/09/02 06:04:45;;;;;;;6.82;4.82;;;25.60;55.50;;;;;;4737343;55;22151;-30
2022/09/02 06:09:46;;;;;;;7.43;4.97;;;25.50;55.40;;;;;;4765199;55;20995;-27
2022/09/02 06:14:48;;;;;;;5.72;4.50;;;25.60;55.50;;;;;;4765110;55;21063;-27
2022/09/02 06:19:48;;;;;;;6.43;5.47;;;25.60;55.50;;;;;;4747615;55;20992;-26
2022/09/02 06:24:51;;;;;;;6.57;5.10;;;25.50;55.40;;;;;;4738890;55;21095;-28
2022/09/02 06:29:52;;;;;;;7.50;5.15;;;25.50;55.40;;;;;;4754918;55;21514;-31
2022/09/02 06:34:52;;;;;;;6.45;5.40;;;25.60;55.50;;;;;;4746077;55;21074;-29
2022/09/02 06:39:53;;;;;;;6.45;5.65;;;25.60;55.50;;;;;;4735770;59;20999;-28
2022/09/02 06:44:54;;;;;;;6.70;6.00;;;25.50;55.40;;;;;;4742437;55;21023;-28
2022/09/02 06:49:55;;;;;;;6.18;5.47;;;25.50;55.50;;;;;;4771117;55;21006;-27
2022/09/02 06:54:56;;;;;;;7.57;6.00;;;25.50;55.40;;;;;;4736538;55;21019;-26
2022/09/02 06:59:56;;;;;;;8.88;6.20;;;25.50;55.50;;;;;;4756578;55;21058;-28
2022/09/02 07:05:10;;;;;;;15.48;11.50;;;25.50;55.60;;;;;;4740301;55;21094;-32
2022/09/02 07:10:15;;;;;;;21.23;13.20;;;25.50;54.90;;;;;;4743701;55;21497;-33
2022/09/02 07:15:16;;;;;;;15.00;12.63;;;25.30;55.20;;;;;;4755808;55;21501;-34
2022/09/02 07:20:17;;;;;;;21.25;14.87;;;25.20;55.50;;;;;;4747025;55;21028;-29
2022/09/02 07:25:18;;;;;;;19.95;16.65;;;25.20;55.60;;;;;;4753826;55;20991;-34
2022/09/02 07:30:19;;;;;;;24.50;18.70;;;25.20;55.80;;;;;;4742755;55;21037;-32
2022/09/02 07:35:20;;;;;;;24.35;19.62;;;25.20;56.00;;;;;;4736187;55;21039;-30
2022/09/02 07:40:22;;;;;;;30.33;20.30;;;25.10;55.80;;;;;;4739906;55;21484;-34
2022/09/02 07:45:23;;;;;;;31.70;21.95;;;25.10;55.80;;;;;;4743295;55;20991;-35
2022/09/02 07:50:25;;;;;;;27.25;21.80;;;25.10;55.70;;;;;;4760501;55;21000;-30
2022/09/02 07:55:28;;;;;;;28.98;22.27;;;25.00;55.70;;;;;;4760969;55;21572;-32
2022/09/02 08:00:29;;;;;;;31.20;27.02;;;25.00;56.20;;;;;;4753742;55;22034;-30
2022/09/02 08:05:31;;;;;;;32.88;23.02;;;25.00;56.00;;;;;;4736043;55;21110;-26
2022/09/02 08:10:33;;;;;;;31.20;20.23;;;25.00;55.70;;;;;;4763136;55;20972;-43
2022/09/02 08:15:35;;;;;;;36.60;24.80;;;25.00;55.30;;;;;;4772012;55;21051;-33
2022/09/02 08:20:36;;;;;;;40.20;28.08;;;25.00;55.40;;;;;;4736476;55;20995;-37
2022/09/02 08:25:37;;;;;;;48.67;32.70;;;25.00;54.40;;;;;;4756440;55;21513;-28
2022/09/02 08:30:38;;;;;;;46.75;33.20;;;25.00;54.30;;;;;;4745922;55;21516;-33
2022/09/02 08:35:39;;;;;;;37.65;29.23;;;25.00;54.40;;;;;;4745580;55;20995;-35
2022/09/02 08:40:42;;;;;;;42.25;27.45;;;25.00;54.90;;;;;;4737247;55;20999;-36
2022/09/02 08:45:44;;;;;;;34.05;27.30;;;25.00;54.10;;;;;;4772475;55;21019;-32
2022/09/02 08:50:47;;;;;;;50.63;39.65;;;24.90;53.80;;;;;;4754538;55;21043;-34
2022/09/02 08:55:54;;;;;;;53.35;41.95;;;24.90;54.00;;;;;;4784009;55;21035;-34
2022/09/02 09:01:19;;;;;;;40.33;31.85;;;24.90;54.10;;;;;;4735684;55;21118;-34
2022/09/02 09:06:32;;;;;;;43.47;31.27;;;24.90;54.10;;;;;;4735590;55;21036;-34
2022/09/02 09:12:17;;;;;;;41.37;30.45;;;24.90;54.60;;;;;;4751993;55;21090;-35
2022/09/02 09:19:14;;;;;;;40.10;28.08;;;25.00;54.30;;;;;;4735212;55;21541;-35
2022/09/02 09:24:37;;;;;;;35.58;26.08;;;25.20;54.30;;;;;;4736772;59;20991;-35
2022/09/02 09:29:38;;;;;;;33.83;25.50;;;25.20;54.10;;;;;;4733937;55;20984;-34
2022/09/02 09:35:00;;;;;;;28.77;23.25;;;25.30;53.90;;;;;;4735660;55;21004;-31
2022/09/02 09:40:20;;;;;;;27.77;22.65;;;25.40;54.00;;;;;;4753553;55;21572;-32
2022/09/02 09:45:33;;;;;;;28.60;22.27;;;25.40;54.20;;;;;;4785611;55;20995;-34
2022/09/02 09:50:34;;;;;;;31.40;22.50;;;25.50;54.10;;;;;;4751094;55;20975;-30
2022/09/02 09:56:04;;;;;;;33.45;24.77;;;25.30;53.70;;;;;;4761575;55;21510;-28
2022/09/02 10:01:38;;;;;;;42.97;29.30;;;25.20;54.20;;;;;;4764682;55;21477;-32
2022/09/02 10:06:42;;;;;;;45.50;34.17;;;25.20;54.40;;;;;;4752768;55;20979;-34
2022/09/02 10:12:01;;;;;;;49.08;32.25;;;25.20;54.70;;;;;;4782939;55;20982;-35
2022/09/02 10:17:30;;;;;;;46.40;34.83;;;25.20;54.70;;;;;;4736771;59;21038;-33
2022/09/02 10:22:58;;;;;;;58.63;40.50;;;25.10;54.60;;;;;;4735868;59;21066;-33
2022/09/02 10:28:36;;;;;;;76.47;56.47;;;25.10;54.60;;;;;;4736835;59;20979;-26
2022/09/02 10:34:09;;;;;;;91.30;66.85;;;25.20;54.50;;;;;;4815433;55;21458;-27
2022/09/02 10:42:18;;;;;;;97.62;77.43;;;25.10;54.50;;;;;;4738855;55;21035;-36
2022/09/02 10:47:39;;;;;;;71.07;52.20;;;25.10;54.40;;;;;;4760031;55;21034;-33
2022/09/02 10:53:05;;;;;;;59.85;49.25;;;25.10;54.70;;;;;;4740250;55;20987;-35
2022/09/02 10:59:18;;;;;;;71.78;51.33;;;25.10;54.30;;;;;;4753328;55;21135;-36
2022/09/02 11:06:04;;;;;;;97.60;75.55;;;25.10;55.00;;;;;;4738162;55;21055;-35
2022/09/02 11:11:14;;;;;;;76.50;60.38;;;25.10;54.60;;;;;;4755846;55;21469;-34
2022/09/02 11:19:45;;;;;;;65.78;49.42;;;25.10;54.40;;;;;;4752939;55;21464;-33
2022/09/02 11:25:09;;;;;;;58.17;42.92;;;25.00;54.30;;;;;;4742812;55;21330;-29
2022/09/02 11:33:13;;;;;;;51.75;37.45;;;25.10;54.20;;;;;;4749933;55;20986;-32
2022/09/02 11:38:40;;;;;;;56.05;38.17;;;25.20;53.80;;;;;;4742972;55;21536;-30
2022/09/02 11:43:52;;;;;;;55.15;38.50;;;25.30;53.70;;;;;;4750707;55;21023;-27
2022/09/02 11:52:49;;;;;;;48.30;36.50;;;25.30;53.80;;;;;;4764033;55;21004;-28
2022/09/02 11:57:53;;;;;;;46.97;35.05;;;25.40;54.40;;;;;;4763290;55;21782;-33
2022/09/02 12:03:31;;;;;;;44.28;34.85;;;25.40;53.70;;;;;;4793259;55;21533;-25
2022/09/02 12:09:40;;;;;;;42.00;32.75;;;25.50;53.60;;;;;;4751572;55;21544;-28
2022/09/02 12:15:11;;;;;;;62.40;48.55;;;25.50;53.40;;;;;;4786147;55;20983;-28
2022/09/02 12:21:09;;;;;;;53.60;37.85;;;25.40;52.30;;;;;;4736175;59;21055;-27
2022/09/02 12:26:11;;;;;;;42.47;34.45;;;25.30;52.50;;;;;;4750913;55;21505;-27
2022/09/02 12:31:41;;;;;;;54.25;47.25;;;25.20;52.50;;;;;;4737280;55;21020;-31
2022/09/02 12:36:50;;;;;;;75.57;58.25;;;25.20;52.60;;;;;;4736493;56;21513;-27
2022/09/02 12:42:25;;;;;;;66.20;48.00;;;25.20;52.70;;;;;;4746159;55;21537;-31
2022/09/02 12:49:02;;;;;;;47.50;33.88;;;25.20;53.00;;;;;;4744526;55;21004;-28
2022/09/02 12:54:05;;;;;;;29.40;24.35;;;25.10;53.00;;;;;;4736969;59;21461;-30
2022/09/02 12:59:06;;;;;;;40.92;31.87;;;25.10;52.90;;;;;;4765232;55;21352;-32
2022/09/02 13:11:10;;;;;;;54.30;44.17;;;25.10;53.00;;;;;;4772556;55;21024;-29
2022/09/02 13:16:26;;;;;;;43.75;32.22;;;25.10;53.10;;;;;;4739426;55;21068;-32
2022/09/02 13:23:07;;;;;;;48.87;36.53;;;25.10;53.30;;;;;;4751587;55;21035;-31
2022/09/02 13:31:51;;;;;;;48.78;37.75;;;25.00;52.90;;;;;;4741804;55;21505;-31
2022/09/02 13:36:52;;;;;;;52.60;37.47;;;25.00;53.00;;;;;;4740189;55;21059;-40
2022/09/02 13:41:53;;;;;;;54.47;38.78;;;25.00;52.90;;;;;;4738465;55;21000;-29
2022/09/02 13:47:02;;;;;;;62.17;44.03;;;25.00;53.00;;;;;;4740113;55;20979;-33
2022/09/02 13:52:06;;;;;;;58.38;42.58;;;25.00;53.00;;;;;;4776260;55;21071;-28
2022/09/02 13:57:11;;;;;;;59.10;39.72;;;25.10;53.20;;;;;;4747678;55;21071;-29
2022/09/02 14:02:33;;;;;;;54.78;39.65;;;25.20;53.30;;;;;;4735190;55;21020;-27
2022/09/02 14:07:40;;;;;;;57.97;40.08;;;25.20;53.00;;;;;;4765260;55;21044;-28
2022/09/02 14:12:43;;;;;;;55.60;39.88;;;25.20;53.10;;;;;;4801964;55;21007;-28
2022/09/02 14:18:06;;;;;;;53.30;38.67;;;25.20;53.10;;;;;;4758405;55;21055;-27
2022/09/02 14:23:15;;;;;;;49.83;37.35;;;25.30;53.10;;;;;;4737023;55;21533;-27
2022/09/02 14:28:26;;;;;;;49.58;38.53;;;25.30;53.20;;;;;;4736189;59;21568;-29
2022/09/02 14:33:42;;;;;;;49.85;37.83;;;25.30;53.20;;;;;;4743645;55;21012;-28
2022/09/02 14:39:08;;;;;;;46.70;35.00;;;25.30;53.20;;;;;;4736299;56;21105;-27
2022/09/02 14:44:13;;;;;;;46.20;34.03;;;25.30;53.30;;;;;;4799970;55;21052;-31
2022/09/02 14:50:16;;;;;;;46.28;34.72;;;25.40;53.40;;;;;;4738545;55;21012;-29
2022/09/02 14:55:54;;;;;;;46.03;35.22;;;25.40;53.30;;;;;;4737000;59;21525;-28
2022/09/02 15:00:58;;;;;;;49.85;35.35;;;25.40;53.40;;;;;;4755893;55;21074;-33
2022/09/02 15:05:59;;;;;;;46.90;33.92;;;25.40;53.40;;;;;;4743768;55;21027;-28
2022/09/02 15:11:00;;;;;;;45.65;34.33;;;25.40;53.40;;;;;;4736706;59;20991;-29
2022/09/02 15:16:02;;;;;;;45.15;34.70;;;25.40;53.50;;;;;;4752683;55;21469;-27
2022/09/02 15:21:03;;;;;;;47.13;33.83;;;25.40;53.60;;;;;;4735944;59;21003;-29
2022/09/02 15:26:04;;;;;;;44.95;32.88;;;25.40;53.60;;;;;;4752864;55;21628;-27
2022/09/02 15:31:05;;;;;;;47.62;34.55;;;25.50;53.80;;;;;;4736840;59;21549;-27
2022/09/02 15:36:11;;;;;;;43.70;33.75;;;25.40;53.70;;;;;;4750566;55;21019;-26
2022/09/02 15:41:20;;;;;;;38.40;30.73;;;25.40;53.70;;;;;;4803748;55;21040;-28
2022/09/02 15:46:27;;;;;;;41.88;31.75;;;25.40;53.80;;;;;;4754355;55;21045;-27
2022/09/02 15:51:28;;;;;;;40.25;29.95;;;25.40;53.80;;;;;;4758837;55;20972;-26
2022/09/02 15:56:31;;;;;;;38.83;29.85;;;25.40;53.80;;;;;;4746801;55;21074;-28
2022/09/02 16:01:33;;;;;;;40.33;30.23;;;25.40;53.90;;;;;;4743480;55;21028;-30
2022/09/02 16:06:38;;;;;;;35.83;29.17;;;25.50;54.00;;;;;;4780956;55;21023;-25
2022/09/02 16:11:41;;;;;;;36.53;28.83;;;25.40;54.00;;;;;;4776819;55;21095;-28
2022/09/02 16:16:42;;;;;;;36.80;28.95;;;25.40;54.00;;;;;;4736406;59;21975;-25
2022/09/02 16:21:43;;;;;;;36.75;29.55;;;25.40;54.10;;;;;;4739749;55;20988;-26
2022/09/02 16:26:44;;;;;;;36.67;28.60;;;25.40;54.10;;;;;;4790248;55;21526;-27
2022/09/02 16:31:46;;;;;;;36.15;27.48;;;25.40;54.20;;;;;;4777715;55;21079;-26
2022/09/02 16:36:49;;;;;;;37.80;29.08;;;25.40;54.20;;;;;;4756689;55;21036;-29
2022/09/02 16:41:53;;;;;;;36.15;28.48;;;25.40;54.20;;;;;;4752465;55;21003;-27
2022/09/02 16:46:54;;;;;;;34.90;27.70;;;25.40;54.20;;;;;;4748617;55;21506;-31
2022/09/02 16:51:54;;;;;;;34.47;27.15;;;25.40;54.30;;;;;;4749785;55;20979;-27
2022/09/02 16:56:55;;;;;;;33.78;27.37;;;25.40;54.30;;;;;;4776605;55;21047;-29
2022/09/02 17:01:56;;;;;;;34.50;26.27;;;25.40;54.30;;;;;;4751020;55;21063;-27
2022/09/02 17:06:57;;;;;;;35.28;26.98;;;25.40;54.30;;;;;;4743640;55;20996;-27
2022/09/02 17:11:58;;;;;;;32.80;25.75;;;25.40;54.30;;;;;;4782150;55;21007;-28
2022/09/02 17:17:02;;;;;;;34.22;26.30;;;25.40;54.40;;;;;;4740642;55;21461;-28
2022/09/02 17:22:03;;;;;;;33.22;25.40;;;25.40;54.40;;;;;;4756356;55;21063;-30
2022/09/02 17:27:04;;;;;;;31.20;24.52;;;25.40;54.40;;;;;;4762557;55;21442;-26
2022/09/02 17:32:05;;;;;;;33.28;25.98;;;25.40;54.40;;;;;;4748572;55;20972;-32
2022/09/02 17:37:06;;;;;;;33.72;24.85;;;25.40;54.40;;;;;;4747361;55;21513;-31
2022/09/02 17:42:07;;;;;;;29.45;24.27;;;25.50;54.60;;;;;;4767475;55;21012;-32
2022/09/02 17:47:14;;;;;;;32.10;24.65;;;25.40;54.50;;;;;;4737895;55;21067;-29
2022/09/02 17:52:18;;;;;;;30.12;24.77;;;25.40;54.50;;;;;;4754934;55;20991;-28
2022/09/02 17:57:36;;;;;;;31.45;24.05;;;25.40;54.60;;;;;;4760372;55;21023;-26
2022/09/02 18:06:00;;;;;;;30.50;24.05;;;25.40;54.60;;;;;;4776610;55;21549;-26
2022/09/02 18:11:04;;;;;;;30.10;23.65;;;25.40;54.70;;;;;;4738172;55;21034;-29
2022/09/02 18:17:45;;;;;;;29.17;23.87;;;25.40;54.70;;;;;;4783404;55;21462;-28
2022/09/02 18:29:57;;;;;;;28.48;22.23;;;25.40;54.80;;;;;;4739529;55;21079;-29
2022/09/02 18:36:47;;;;;;;28.08;21.83;;;25.40;54.90;;;;;;4740665;55;21043;-29
2022/09/02 18:45:06;;;;;;;27.90;22.13;;;25.40;55.00;;;;;;4749140;55;21051;-35
2022/09/02 18:50:08;;;;;;;30.50;23.08;;;25.40;55.00;;;;;;4787417;55;20987;-32
2022/09/02 18:55:14;;;;;;;26.83;21.52;;;25.40;55.10;;;;;;4770576;55;20979;-28
2022/09/02 19:00:19;;;;;;;26.25;21.42;;;25.40;55.00;;;;;;4765072;55;22303;-37
2022/09/02 19:05:24;;;;;;;27.45;21.85;;;25.40;55.10;;;;;;4787411;55;21497;-29
2022/09/02 19:10:24;;;;;;;27.13;21.05;;;25.40;55.10;;;;;;4750035;55;21493;-32
2022/09/02 19:15:25;;;;;;;26.12;21.30;;;25.40;55.20;;;;;;4742972;55;21314;-28
2022/09/02 19:20:26;;;;;;;26.37;21.65;;;25.40;55.20;;;;;;4758475;55;21079;-30
2022/09/02 19:25:29;;;;;;;25.73;20.42;;;25.40;55.20;;;;;;4743157;55;21426;-29
2022/09/02 19:30:35;;;;;;;27.48;21.37;;;25.40;55.20;;;;;;4791200;55;21608;-34
2022/09/02 19:35:36;;;;;;;26.35;21.27;;;25.40;55.20;;;;;;4743637;55;21453;-27
2022/09/02 19:40:38;;;;;;;25.70;21.35;;;25.40;55.30;;;;;;4736180;59;21584;-28
2022/09/02 19:45:39;;;;;;;24.55;20.48;;;25.40;55.30;;;;;;4740429;55;21505;-31
2022/09/02 19:50:42;;;;;;;26.55;21.15;;;25.40;55.40;;;;;;4746718;55;20983;-33
2022/09/02 19:55:42;;;;;;;26.65;21.25;;;25.40;55.30;;;;;;4760818;55;22020;-30
2022/09/02 20:00:43;;;;;;;25.10;19.62;;;25.40;55.30;;;;;;4755530;55;20993;-26
2022/09/02 20:05:45;;;;;;;24.73;19.70;;;25.40;55.30;;;;;;4744071;55;21082;-26
2022/09/02 20:10:54;;;;;;;23.58;19.45;;;25.40;55.40;;;;;;4755690;55;21012;-27
2022/09/02 20:15:55;;;;;;;25.17;18.95;;;25.40;55.40;;;;;;4758534;55;21478;-27
2022/09/02 20:20:59;;;;;;;23.77;19.92;;;25.40;55.30;;;;;;4746011;55;21012;-28
2022/09/02 20:26:17;;;;;;;24.45;19.50;;;25.40;55.40;;;;;;4773316;55;20975;-29
2022/09/02 20:34:03;;;;;;;23.48;18.73;;;25.30;55.30;;;;;;4792180;55;21062;-27
2022/09/02 20:40:33;;;;;;;23.02;18.27;;;25.30;55.40;;;;;;4750939;55;21019;-30
2022/09/02 20:46:43;;;;;;;21.98;18.90;;;25.30;55.40;;;;;;4737131;59;20999;-27
2022/09/02 20:53:33;;;;;;;23.10;18.37;;;25.30;55.40;;;;;;4739474;55;21122;-27
2022/09/02 21:00:01;;;;;;;22.67;17.92;;;25.30;55.40;;;;;;4750410;55;21119;-39
2022/09/02 21:05:22;;;;;;;21.62;17.62;;;25.30;55.40;;;;;;4735852;55;21549;-32
2022/09/02 21:10:30;;;;;;;23.60;17.80;;;25.30;55.00;;;;;;4762647;55;20975;-27
2022/09/02 21:15:39;;;;;;;22.35;17.70;;;25.30;55.50;;;;;;4739115;55;21461;-29
2022/09/02 21:23:31;;;;;;;19.95;17.40;;;25.30;55.50;;;;;;4738215;55;21003;-32
2022/09/02 21:28:42;;;;;;;22.45;17.23;;;25.30;55.50;;;;;;4777144;55;20992;-30
2022/09/02 21:33:44;;;;;;;20.92;16.27;;;25.30;55.50;;;;;;4736224;59;21067;-26
2022/09/02 21:38:45;;;;;;;23.15;17.40;;;25.30;55.50;;;;;;4756650;55;21043;-35
2022/09/02 21:44:01;;;;;;;19.67;16.48;;;25.30;56.10;;;;;;4769775;55;21084;-25
2022/09/02 21:56:07;;;;;;;19.60;16.55;;;25.30;55.60;;;;;;4755429;55;21177;-32
2022/09/02 22:01:39;;;;;;;19.50;16.60;;;25.30;55.60;;;;;;4768351;55;21075;-32
2022/09/02 22:06:46;;;;;;;20.40;16.27;;;25.30;55.60;;;;;;4753307;55;21453;-27
2022/09/02 22:12:06;;;;;;;19.23;15.63;;;25.30;55.60;;;;;;4767962;55;21461;-29
2022/09/02 22:17:21;;;;;;;19.17;15.68;;;25.30;55.70;;;;;;4739968;55;21047;-31
2022/09/02 22:22:28;;;;;;;19.92;15.80;;;25.30;55.70;;;;;;4757525;55;21465;-34
2022/09/02 22:27:43;;;;;;;18.27;15.40;;;25.30;55.70;;;;;;4796666;55;21090;-27
2022/09/02 22:32:51;;;;;;;18.25;15.40;;;25.30;55.70;;;;;;4751241;55;21167;-33
2022/09/02 22:38:15;;;;;;;16.92;14.38;;;25.30;55.70;;;;;;4757316;55;21039;-26
2022/09/02 22:43:22;;;;;;;21.25;15.95;;;25.30;55.70;;;;;;4803494;55;21497;-32
2022/09/02 22:53:46;;;;;;;18.70;14.80;;;25.30;56.40;;;;;;4779766;55;20393;-30
2022/09/02 22:59:06;;;;;;;15.52;13.48;;;25.30;55.80;;;;;;4777549;55;21501;-27
2022/09/02 23:05:48;;;;;;;17.58;15.57;;;25.30;55.80;;;;;;4772008;55;20992;-26
2022/09/02 23:11:10;;;;;;;17.83;14.65;;;25.30;55.80;;;;;;4736867;56;21541;-26
2022/09/02 23:18:21;;;;;;;16.70;14.02;;;25.30;55.90;;;;;;4749152;55;21078;-35
2022/09/02 23:23:44;;;;;;;16.50;13.55;;;25.30;55.90;;;;;;4744583;55;21557;-29
2022/09/02 23:29:24;;;;;;;19.37;14.05;;;25.30;55.90;;;;;;4765195;55;21007;-29
2022/09/02 23:38:05;;;;;;;16.48;13.77;;;25.30;55.90;;;;;;4754780;55;22096;-25
2022/09/02 23:43:07;;;;;;;17.67;13.82;;;25.30;55.90;;;;;;4755926;55;21092;-34
2022/09/02 23:55:03;;;;;;;20.55;14.07;;;25.30;56.00;;;;;;4756389;55;21019;-26
